Time;durP1;ratioP1;P1;durP2;ratioP2;P2;SDS_P1;SDS_P2;PMS_P1;PMS_P2;Temp;Humidity;BMP_temperature;BMP_pressure;BME280_temperature;BME280_humidity;BME280_pressure;Samples;Min_cycle;Max_cycle;Signal;HPM_P1;HPM_P2
2023/02/26 00:01:44;;;;;;;21.80;10.70;;;;;;;1.90;75.81;97670.25;108741;1253;107332;-69
2023/02/26 00:04:12;;;;;;;22.40;10.20;;;;;;;1.86;75.95;97674.84;108762;1255;94284;-69
2023/02/26 00:06:51;;;;;;;22.90;10.80;;;;;;;1.84;76.04;97676.74;108752;1252;94285;-69
2023/02/26 00:09:22;;;;;;;23.40;11.10;;;;;;;1.84;75.81;97674.96;108802;1254;109864;-69
2023/02/26 00:11:50;;;;;;;23.00;9.40;;;;;;;1.85;75.96;97675.83;108872;1253;101831;-69
2023/02/26 00:14:19;;;;;;;21.10;9.80;;;;;;;1.84;75.77;97669.59;108896;1254;107615;-69
2023/02/26 00:16:52;;;;;;;22.60;10.10;;;;;;;1.83;76.01;97663.02;108885;1253;94938;-69
2023/02/26 00:19:20;;;;;;;;;;;;;;;1.83;75.72;97660.02;108939;1253;94241;-70
2023/02/26 00:21:49;;;;;;;22.20;9.40;;;;;;;1.81;76.16;97671.34;108930;1251;109387;-69
2023/02/26 00:24:16;;;;;;;23.90;10.20;;;;;;;1.80;76.00;97683.46;108854;1252;102197;-70
2023/02/26 00:26:44;;;;;;;22.30;10.20;;;;;;;1.78;75.99;97681.45;108907;1251;107201;-69
2023/02/26 00:29:12;;;;;;;22.90;10.10;;;;;;;1.77;75.89;97676.08;108933;1251;94494;-69
2023/02/26 00:31:40;;;;;;;21.20;9.40;;;;;;;1.76;76.03;97679.84;108953;1252;94667;-69
2023/02/26 00:34:12;;;;;;;22.10;9.80;;;;;;;1.74;76.20;97686.06;108898;1253;109906;-69
2023/02/26 00:37:01;;;;;;;21.70;8.80;;;;;;;1.73;75.89;97692.21;108922;1251;102593;-70
2023/02/26 00:39:47;;;;;;;19.80;9.10;;;;;;;1.73;76.18;97696.23;108906;1251;107569;-69
2023/02/26 00:42:15;;;;;;;22.00;10.10;;;;;;;1.75;76.28;97699.48;108907;1253;94622;-70
2023/02/26 00:44:43;;;;;;;21.00;9.50;;;;;;;1.74;75.92;97705.26;108975;1253;94268;-69
2023/02/26 00:47:29;;;;;;;23.00;10.30;;;;;;;1.74;75.90;97709.83;108931;1251;109869;-70
2023/02/26 00:50:15;;;;;;;22.50;9.90;;;;;;;1.75;75.98;97710.11;108929;1253;102237;-70
2023/02/26 00:52:52;;;;;;;20.60;9.00;;;;;;;1.75;75.90;97712.38;108933;1251;107185;-69
2023/02/26 00:55:20;;;;;;;21.10;10.40;;;;;;;1.74;76.00;97714.55;108895;1252;94254;-69
2023/02/26 00:57:49;;;;;;;22.20;10.70;;;;;;;1.74;75.93;97716.80;108732;1254;94290;-69
2023/02/26 01:00:18;;;;;;;25.10;10.30;;;;;;;1.73;75.85;97716.73;108879;1251;108546;-69
2023/02/26 01:02:46;;;;;;;25.00;12.50;;;;;;;1.71;76.20;97729.72;108927;1254;101891;-69
2023/02/26 01:05:14;;;;;;;25.00;11.70;;;;;;;1.70;76.01;97724.92;108936;1254;107070;-69
2023/02/26 01:07:45;;;;;;;23.00;11.20;;;;;;;1.69;75.91;97717.48;108908;1253;94305;-69
2023/02/26 01:10:14;;;;;;;26.80;12.90;;;;;;;1.67;75.81;97723.86;108948;1253;94220;-70
2023/02/26 01:12:43;;;;;;;26.70;13.60;;;;;;;1.66;76.11;97726.88;108940;1253;109968;-69
2023/02/26 01:15:11;;;;;;;27.10;12.40;;;;;;;1.65;75.88;97730.80;108860;1252;101937;-69
2023/02/26 01:18:10;;;;;;;25.60;10.60;;;;;;;1.67;75.81;97737.15;108848;1253;107257;-70
2023/02/26 01:20:45;;;;;;;19.50;9.60;;;;;;;1.67;76.12;97741.14;108918;1251;94253;-70
2023/02/26 01:23:18;;;;;;;16.60;8.00;;;;;;;1.67;76.07;97729.81;109002;1251;94247;-70
2023/02/26 01:25:57;;;;;;;19.40;9.30;;;;;;;1.66;75.96;97725.32;108877;1252;111168;-70
2023/02/26 01:28:26;;;;;;;19.50;9.20;;;;;;;1.63;76.03;97733.52;108923;1254;101495;-69
2023/02/26 01:31:01;;;;;;;19.70;9.20;;;;;;;1.62;75.77;97742.81;108897;1252;107073;-69
2023/02/26 01:33:32;;;;;;;19.60;9.90;;;;;;;1.62;75.83;97741.98;108882;1252;94232;-69
2023/02/26 01:36:13;;;;;;;20.60;9.30;;;;;;;1.61;75.86;97746.22;108969;1253;94247;-69
2023/02/26 01:38:40;;;;;;;20.20;8.80;;;;;;;1.60;76.11;97755.52;108928;1251;108893;-69
2023/02/26 01:41:08;;;;;;;20.20;9.30;;;;;;;1.61;76.03;97757.77;108888;1251;101911;-69
2023/02/26 01:43:55;;;;;;;19.00;8.60;;;;;;;1.62;76.10;97751.94;108845;1254;107695;-70
2023/02/26 01:46:43;;;;;;;21.10;8.90;;;;;;;1.61;76.14;97743.39;108936;1253;94181;-69
2023/02/26 01:49:15;;;;;;;20.60;8.60;;;;;;;1.60;76.27;97731.95;108907;1251;94163;-69
2023/02/26 01:51:56;;;;;;;20.30;9.60;;;;;;;1.59;76.34;97717.17;108902;1253;109889;-69
2023/02/26 01:54:31;;;;;;;18.90;8.20;;;;;;;1.58;76.22;97713.71;108976;1252;102228;-69
2023/02/26 01:57:03;;;;;;;22.20;10.70;;;;;;;1.57;75.95;97715.88;108897;1252;107224;-69
2023/02/26 01:59:34;;;;;;;25.40;10.50;;;;;;;1.53;76.00;97723.59;108906;1252;94184;-70
2023/02/26 02:02:05;;;;;;;26.20;11.20;;;;;;;1.49;76.03;97726.08;108950;1252;94224;-69
2023/02/26 02:04:33;;;;;;;21.00;7.90;;;;;;;1.47;76.17;97720.80;108918;1256;110173;-69
2023/02/26 02:07:02;;;;;;;20.70;8.60;;;;;;;1.45;75.84;97730.50;108927;1251;102268;-69
2023/02/26 02:09:31;;;;;;;20.80;8.40;;;;;;;1.44;76.26;97743.98;108777;1254;107626;-69
2023/02/26 02:12:20;;;;;;;19.40;7.50;;;;;;;1.45;76.34;97749.58;108888;1251;94259;-69
2023/02/26 02:15:11;;;;;;;15.10;5.90;;;;;;;1.43;76.21;97770.45;108929;1252;94233;-70
2023/02/26 02:18:06;;;;;;;17.00;7.00;;;;;;;1.40;75.98;97782.71;108923;1253;109998;-69
2023/02/26 02:20:56;;;;;;;14.30;6.10;;;;;;;1.37;75.85;97797.53;108911;1254;102429;-69
2023/02/26 02:23:24;;;;;;;14.10;6.60;;;;;;;1.31;76.30;97805.70;108897;1253;107099;-69
2023/02/26 02:26:19;;;;;;;13.90;5.50;;;;;;;1.28;76.10;97811.83;108911;1254;94191;-69
2023/02/26 02:29:12;;;;;;;16.10;6.30;;;;;;;1.28;76.01;97802.05;108947;1251;94638;-69
2023/02/26 02:31:46;;;;;;;11.00;5.00;;;;;;;1.29;76.06;97798.30;108939;1254;110106;-69
2023/02/26 02:34:17;;;;;;;15.80;7.00;;;;;;;1.28;76.02;97800.10;108903;1251;102721;-70
2023/02/26 02:37:10;;;;;;;17.00;7.00;;;;;;;1.28;75.92;97801.85;108913;1253;107256;-69
2023/02/26 02:39:46;;;;;;;15.10;6.50;;;;;;;1.26;75.89;97810.51;108946;1251;95704;-69
2023/02/26 02:42:23;;;;;;;16.00;7.00;;;;;;;1.25;75.90;97815.98;108799;1254;94263;-69
2023/02/26 02:44:59;;;;;;;16.80;7.70;;;;;;;1.25;75.78;97827.69;108967;1256;109906;-69
2023/02/26 02:47:31;;;;;;;16.80;7.80;;;;;;;1.27;76.08;97833.54;108941;1251;101983;-69
2023/02/26 02:50:21;;;;;;;18.20;7.00;;;;;;;1.28;76.01;97835.05;108924;1251;107734;-69
2023/02/26 02:53:21;;;;;;;15.80;6.60;;;;;;;1.28;75.75;97828.77;108859;1251;94246;-69
2023/02/26 02:55:56;;;;;;;16.10;6.50;;;;;;;1.26;75.95;97826.62;108701;1251;96062;-69
2023/02/26 02:58:30;;;;;;;15.50;6.70;;;;;;;1.24;75.86;97822.67;108942;1252;108796;-69
2023/02/26 03:01:01;;;;;;;16.70;7.30;;;;;;;1.24;76.09;97827.60;108954;1251;102268;-69
2023/02/26 03:03:29;;;;;;;16.40;6.90;;;;;;;1.21;75.72;97834.75;108856;1251;107592;-69
2023/02/26 03:05:57;;;;;;;17.50;7.80;;;;;;;1.19;76.00;97848.29;108885;1255;95672;-69
2023/02/26 03:08:28;;;;;;;18.60;8.20;;;;;;;1.19;75.99;97867.67;108912;1255;95640;-69
2023/02/26 03:10:57;;;;;;;15.80;6.80;;;;;;;1.21;75.68;97875.10;108923;1251;111339;-69
2023/02/26 03:13:25;;;;;;;15.00;6.60;;;;;;;1.23;75.74;97874.09;108934;1253;101909;-70
2023/02/26 03:16:18;;;;;;;14.70;6.10;;;;;;;1.26;76.07;97879.86;108879;1251;107710;-69
2023/02/26 03:19:17;;;;;;;15.90;7.50;;;;;;;1.29;75.85;97868.34;108877;1254;95627;-69
2023/02/26 03:22:07;;;;;;;17.20;6.90;;;;;;;1.29;75.69;97858.89;108935;1254;95591;-69
2023/02/26 03:24:53;;;;;;;16.60;6.50;;;;;;;1.29;75.64;97876.39;108774;1253;112174;-69
2023/02/26 03:27:22;;;;;;;13.90;5.20;;;;;;;1.31;76.13;97905.59;108909;1251;102239;-69
2023/02/26 03:30:15;;;;;;;13.50;5.90;;;;;;;1.36;75.90;97917.45;108872;1254;107058;-69
2023/02/26 03:32:53;;;;;;;15.00;6.20;;;;;;;1.37;75.91;97927.13;108917;1253;95635;-69
2023/02/26 03:35:41;;;;;;;10.90;5.50;;;;;;;1.38;75.69;97927.95;108950;1252;95553;-69
2023/02/26 03:38:18;;;;;;;12.30;5.50;;;;;;;1.41;75.74;97932.34;108926;1251;111274;-69
2023/02/26 03:41:02;;;;;;;12.50;5.70;;;;;;;1.43;75.95;97940.77;108856;1252;102209;-70
2023/02/26 03:43:46;;;;;;;12.50;5.50;;;;;;;1.46;75.86;97940.08;108911;1254;107613;-69
2023/02/26 03:46:20;;;;;;;12.10;5.80;;;;;;;1.48;75.67;97936.33;108892;1253;95608;-69
2023/02/26 03:48:50;;;;;;;13.70;5.60;;;;;;;1.47;75.76;97951.95;108780;1254;95619;-69
2023/02/26 03:51:19;;;;;;;12.80;5.70;;;;;;;1.46;75.68;97953.21;108868;1253;110950;-69
2023/02/26 03:53:53;;;;;;;11.90;5.50;;;;;;;1.46;75.76;97960.38;108900;1252;102218;-69
2023/02/26 03:56:27;;;;;;;12.70;5.80;;;;;;;1.46;75.81;97951.96;108876;1254;107589;-70
2023/02/26 03:58:55;;;;;;;12.00;5.60;;;;;;;1.46;75.70;97967.02;108879;1253;95579;-69
2023/02/26 04:01:30;;;;;;;11.30;5.10;;;;;;;1.44;75.59;97961.34;108917;1252;95573;-69
2023/02/26 04:04:03;;;;;;;11.40;5.80;;;;;;;1.42;75.77;97974.89;108912;1254;110189;-69
2023/02/26 04:06:32;;;;;;;12.10;5.80;;;;;;;1.41;75.54;97964.50;108906;1255;102284;-70
2023/02/26 04:09:02;;;;;;;14.20;6.10;;;;;;;1.38;75.73;97948.23;108903;1254;106643;-69
2023/02/26 04:11:31;;;;;;;13.30;6.00;;;;;;;1.34;75.46;97942.30;108885;1253;95536;-69
2023/02/26 04:13:59;;;;;;;12.50;5.60;;;;;;;1.33;75.57;97950.40;108909;1253;95766;-69
2023/02/26 04:16:27;;;;;;;12.70;5.70;;;;;;;1.30;75.51;97944.63;108913;1251;110948;-69
2023/02/26 04:18:55;;;;;;;13.80;6.40;;;;;;;1.27;75.50;97940.21;108835;1253;102326;-69
2023/02/26 04:21:23;;;;;;;12.90;6.30;;;;;;;1.25;75.54;97932.52;108894;1254;107283;-69
2023/02/26 04:23:51;;;;;;;16.40;6.20;;;;;;;1.22;75.38;97933.20;108905;1254;95676;-69
2023/02/26 04:26:19;;;;;;;14.50;5.80;;;;;;;1.18;75.48;97956.07;108961;1254;96116;-69
2023/02/26 04:28:47;;;;;;;13.90;6.00;;;;;;;1.16;75.42;97963.67;108883;1254;110867;-70
2023/02/26 04:31:15;;;;;;;14.10;5.70;;;;;;;1.15;75.76;97977.54;108935;1253;101910;-70
2023/02/26 04:33:43;;;;;;;12.80;5.70;;;;;;;1.15;75.77;97986.08;108834;1251;107225;-69
2023/02/26 04:36:11;;;;;;;13.50;5.20;;;;;;;1.15;75.57;98002.84;108892;1252;95687;-69
2023/02/26 04:38:39;;;;;;;13.20;5.50;;;;;;;1.15;75.51;98001.46;108900;1251;95723;-69
2023/02/26 04:41:07;;;;;;;12.60;5.50;;;;;;;1.15;75.38;98001.32;108905;1254;111210;-69
2023/02/26 04:43:36;;;;;;;11.90;4.80;;;;;;;1.14;75.49;98013.92;108924;1254;102289;-69
2023/02/26 04:46:04;;;;;;;15.70;6.10;;;;;;;1.14;75.53;98018.27;108909;1254;106707;-69
2023/02/26 04:48:32;;;;;;;15.40;6.20;;;;;;;1.14;75.36;98010.79;108857;1252;95571;-70
2023/02/26 04:51:00;;;;;;;20.90;8.00;;;;;;;1.14;75.52;98006.39;108998;1252;95603;-69
2023/02/26 04:53:27;;;;;;;15.10;5.50;;;;;;;1.12;75.45;98002.30;108914;1252;111261;-69
2023/02/26 04:55:55;;;;;;;13.20;5.90;;;;;;;1.11;75.38;97992.73;108905;1251;102255;-70
2023/02/26 04:58:23;;;;;;;12.90;5.70;;;;;;;1.09;75.39;97984.29;108859;1251;107446;-69
2023/02/26 05:00:53;;;;;;;13.80;5.40;;;;;;;1.07;75.30;98010.06;108915;1253;96030;-70
2023/02/26 05:03:21;;;;;;;13.00;5.50;;;;;;;1.06;75.58;98034.55;108904;1253;95696;-70
2023/02/26 05:05:49;;;;;;;14.70;5.60;;;;;;;1.05;75.46;98031.81;108893;1256;110851;-69
2023/02/26 05:08:17;;;;;;;12.40;5.80;;;;;;;1.04;75.46;98029.27;108887;1254;101247;-69
2023/02/26 05:10:45;;;;;;;11.20;5.00;;;;;;;1.01;75.48;98026.06;108892;1252;107644;-69
2023/02/26 05:13:12;;;;;;;12.50;5.00;;;;;;;1.00;75.39;98032.08;108886;1253;95962;-69
2023/02/26 05:15:40;;;;;;;11.50;5.10;;;;;;;0.98;75.60;98025.88;108918;1251;95644;-69
2023/02/26 05:18:08;;;;;;;13.70;5.00;;;;;;;0.97;75.42;98031.54;108878;1253;111218;-69
2023/02/26 05:20:36;;;;;;;9.30;4.50;;;;;;;0.96;75.52;98032.10;108915;1251;101982;-69
2023/02/26 05:23:04;;;;;;;12.20;5.00;;;;;;;0.95;75.40;98045.24;108915;1251;107200;-70
2023/02/26 05:25:32;;;;;;;15.60;6.40;;;;;;;0.95;75.26;98059.56;108830;1254;95692;-69
2023/02/26 05:28:00;;;;;;;15.50;6.10;;;;;;;0.95;75.46;98060.42;108904;1251;95567;-70
2023/02/26 05:30:28;;;;;;;11.80;6.30;;;;;;;0.97;75.56;98056.84;108897;1254;111260;-70
2023/02/26 05:32:56;;;;;;;11.90;5.70;;;;;;;0.97;75.28;98059.30;108903;1251;101242;-69
2023/02/26 05:35:23;;;;;;;12.00;5.70;;;;;;;0.96;75.20;98067.89;108892;1253;106637;-69
2023/02/26 05:37:51;;;;;;;12.40;5.00;;;;;;;0.96;75.44;98063.02;108889;1253;95648;-70
2023/02/26 05:40:19;;;;;;;12.30;5.40;;;;;;;0.95;75.59;98053.45;108932;1251;95905;-70
2023/02/26 05:42:47;;;;;;;11.50;5.00;;;;;;;0.93;75.11;98056.67;108931;1252;111227;-69
2023/02/26 05:45:15;;;;;;;11.00;4.60;;;;;;;0.92;75.35;98060.42;108894;1255;102268;-70
2023/02/26 05:47:43;;;;;;;14.80;5.20;;;;;;;0.92;75.33;98073.50;108913;1251;107257;-70
2023/02/26 05:50:11;;;;;;;14.50;5.50;;;;;;;0.92;75.36;98068.62;108887;1252;95693;-70
2023/02/26 05:52:39;;;;;;;14.20;5.90;;;;;;;0.91;75.39;98067.60;108900;1253;95596;-69
2023/02/26 05:55:08;;;;;;;13.40;5.70;;;;;;;0.91;75.43;98068.31;108911;1254;111265;-70
2023/02/26 05:57:36;;;;;;;12.90;5.60;;;;;;;0.93;75.32;98073.46;108914;1251;100923;-70
2023/02/26 06:00:06;;;;;;;12.80;5.60;;;;;;;0.94;75.54;98077.40;108889;1251;107570;-70
2023/02/26 06:02:34;;;;;;;15.30;6.00;;;;;;;0.96;75.58;98093.36;108824;1252;96504;-70
2023/02/26 06:05:02;;;;;;;12.00;5.60;;;;;;;0.98;75.58;98093.63;108886;1253;95567;-69
2023/02/26 06:07:30;;;;;;;13.70;5.50;;;;;;;1.03;75.54;98094.08;108931;1254;110899;-69
2023/02/26 06:09:58;;;;;;;11.80;5.50;;;;;;;1.04;75.30;98104.14;108893;1253;102273;-70
2023/02/26 06:12:26;;;;;;;15.80;5.80;;;;;;;1.02;75.25;98109.48;108861;1256;106761;-69
2023/02/26 06:14:54;;;;;;;11.90;5.40;;;;;;;1.01;75.27;98118.42;108814;1254;95604;-69
2023/02/26 06:17:22;;;;;;;12.80;6.20;;;;;;;1.03;75.45;98121.47;108931;1252;95667;-71
2023/02/26 06:19:50;;;;;;;11.90;5.20;;;;;;;1.06;75.19;98135.14;108840;1251;110345;-70
2023/02/26 06:22:19;;;;;;;12.90;5.30;;;;;;;1.04;75.14;98147.80;108884;1251;102239;-70
2023/02/26 06:24:47;;;;;;;15.30;6.10;;;;;;;1.07;75.19;98160.23;108815;1252;107114;-70
2023/02/26 06:27:15;;;;;;;16.90;6.70;;;;;;;1.09;75.11;98172.90;108847;1252;96012;-70
2023/02/26 06:29:43;;;;;;;20.90;7.60;;;;;;;1.12;75.17;98176.25;108933;1252;95678;-70
2023/02/26 06:32:10;;;;;;;27.10;10.20;;;;;;;1.14;75.22;98175.98;108887;1251;111387;-70
2023/02/26 06:34:39;;;;;;;32.50;11.60;;;;;;;1.15;75.21;98177.64;108885;1251;102216;-70
2023/02/26 06:37:07;;;;;;;24.20;8.30;;;;;;;1.18;75.27;98185.23;108845;1251;107834;-70
2023/02/26 06:39:35;;;;;;;19.60;7.60;;;;;;;1.21;75.06;98185.27;108849;1253;95675;-70
2023/02/26 06:42:04;;;;;;;15.50;5.60;;;;;;;1.23;75.26;98203.86;108927;1251;95685;-70
2023/02/26 06:44:31;;;;;;;13.10;6.00;;;;;;;1.22;74.81;98202.50;108914;1251;111338;-70
2023/02/26 06:46:59;;;;;;;12.40;5.10;;;;;;;1.21;75.13;98195.02;108871;1255;101906;-70
2023/02/26 06:49:27;;;;;;;15.90;6.40;;;;;;;1.22;74.78;98215.77;108913;1251;107342;-70
2023/02/26 06:51:55;;;;;;;10.70;5.10;;;;;;;1.25;74.54;98222.80;108827;1251;95603;-70
2023/02/26 06:54:23;;;;;;;13.60;5.60;;;;;;;1.23;74.53;98219.38;108918;1251;95662;-70
2023/02/26 06:56:51;;;;;;;17.80;6.90;;;;;;;1.26;74.86;98217.33;108924;1251;110818;-70
2023/02/26 06:59:20;;;;;;;16.90;6.10;;;;;;;1.26;74.84;98212.94;108875;1253;102047;-71
2023/02/26 07:01:48;;;;;;;14.90;5.90;;;;;;;1.28;74.80;98208.48;108816;1251;107089;-70
2023/02/26 07:04:16;;;;;;;21.00;8.60;;;;;;;1.29;74.64;98212.96;108857;1251;95967;-70
2023/02/26 07:06:47;;;;;;;17.80;7.00;;;;;;;1.27;74.65;98214.42;108921;1251;96018;-71
2023/02/26 07:09:15;;;;;;;16.90;6.40;;;;;;;1.25;74.77;98213.33;108891;1251;110008;-71
2023/02/26 07:11:45;;;;;;;15.90;7.20;;;;;;;1.27;75.00;98217.45;108905;1253;102177;-71
2023/02/26 07:14:13;;;;;;;16.40;6.70;;;;;;;1.28;74.94;98227.67;108841;1251;106310;-71
2023/02/26 07:16:40;;;;;;;19.10;8.90;;;;;;;1.31;74.81;98231.21;108839;1253;95662;-70
2023/02/26 07:19:08;;;;;;;17.50;7.70;;;;;;;1.30;74.61;98236.45;108867;1251;95640;-70
2023/02/26 07:21:37;;;;;;;21.80;10.50;;;;;;;1.30;74.77;98236.48;108848;1251;110929;-71
2023/02/26 07:24:05;;;;;;;17.50;7.80;;;;;;;1.31;74.63;98245.54;108853;1251;102232;-70
2023/02/26 07:26:33;;;;;;;16.60;6.60;;;;;;;1.27;74.59;98243.59;108838;1251;106103;-70
2023/02/26 07:29:01;;;;;;;11.00;5.60;;;;;;;1.27;74.67;98246.77;108735;1253;95922;-70
2023/02/26 07:31:29;;;;;;;13.50;6.30;;;;;;;1.27;74.60;98246.95;108726;1251;95947;-71
2023/02/26 07:33:57;;;;;;;29.50;13.30;;;;;;;1.28;74.75;98245.13;108768;1251;110986;-71
2023/02/26 07:36:25;;;;;;;30.80;19.00;;;;;;;1.30;74.50;98245.39;108771;1252;102293;-71
2023/02/26 07:38:53;;;;;;;17.90;7.40;;;;;;;1.29;74.11;98252.81;108764;1253;107806;-70
2023/02/26 07:41:22;;;;;;;17.20;7.70;;;;;;;1.22;74.22;98254.69;108742;1252;95653;-70
2023/02/26 07:43:50;;;;;;;14.60;5.90;;;;;;;1.22;74.61;98260.14;108752;1253;95840;-70
2023/02/26 07:46:18;;;;;;;17.70;6.50;;;;;;;1.24;74.63;98266.63;108671;1254;111219;-71
2023/02/26 07:48:46;;;;;;;13.40;5.40;;;;;;;1.26;74.53;98268.11;108639;1252;102750;-71
2023/02/26 07:51:14;;;;;;;14.00;6.20;;;;;;;1.30;74.49;98273.33;108686;1251;107675;-70
2023/02/26 07:53:42;;;;;;;22.70;9.70;;;;;;;1.35;74.57;98274.53;108706;1253;95761;-71
2023/02/26 07:56:10;;;;;;;26.30;19.90;;;;;;;1.39;74.45;98278.69;108824;1251;95892;-70
2023/02/26 07:58:38;;;;;;;17.20;7.00;;;;;;;1.42;74.07;98283.48;108899;1251;111951;-70
2023/02/26 08:01:06;;;;;;;16.30;6.60;;;;;;;1.45;74.38;98277.86;108868;1251;101003;-69
2023/02/26 08:03:34;;;;;;;22.00;8.10;;;;;;;1.54;74.53;98290.20;108860;1253;107545;-70
2023/02/26 08:06:04;;;;;;;22.50;8.30;;;;;;;1.61;74.39;98305.41;108827;1254;95700;-70
2023/02/26 08:08:32;;;;;;;12.40;5.60;;;;;;;1.61;73.69;98315.41;108829;1251;95634;-70
2023/02/26 08:11:00;;;;;;;27.10;12.40;;;;;;;1.59;74.01;98324.25;108914;1251;111342;-69
2023/02/26 08:13:28;;;;;;;28.50;12.70;;;;;;;1.62;74.17;98332.66;108774;1251;150441;-70
2023/02/26 08:15:56;;;;;;;25.00;9.70;;;;;;;1.64;73.95;98345.64;108905;1251;105819;-69
2023/02/26 08:18:24;;;;;;;24.30;10.00;;;;;;;1.63;74.04;98348.69;108844;1251;95866;-69
2023/02/26 08:20:52;;;;;;;26.50;9.90;;;;;;;1.59;72.96;98352.00;108854;1251;95708;-70
2023/02/26 08:23:21;;;;;;;24.50;9.60;;;;;;;1.51;72.93;98357.11;108934;1251;111214;-70
2023/02/26 08:25:49;;;;;;;30.90;12.80;;;;;;;1.48;73.17;98363.71;108919;1251;101941;-70
2023/02/26 08:28:17;;;;;;;32.00;11.60;;;;;;;1.47;73.63;98363.90;108816;1253;107600;-70
2023/02/26 08:30:45;;;;;;;37.60;23.30;;;;;;;1.47;72.93;98361.31;108840;1253;95635;-70
2023/02/26 08:33:13;;;;;;;33.20;18.40;;;;;;;1.47;73.79;98362.02;108876;1251;95679;-70
2023/02/26 08:35:40;;;;;;;128.50;81.10;;;;;;;1.48;73.65;98366.51;108849;1251;110999;-70
2023/02/26 08:38:09;;;;;;;168.90;102.40;;;;;;;1.49;73.21;98373.95;108838;1253;102209;-69
2023/02/26 08:40:37;;;;;;;270.40;193.70;;;;;;;1.51;73.82;98380.36;108743;1252;107787;-70
2023/02/26 08:43:05;;;;;;;93.20;61.10;;;;;;;1.54;73.96;98383.16;108882;1251;95813;-70
2023/02/26 08:45:33;;;;;;;46.60;27.90;;;;;;;1.57;73.54;98393.35;108852;1251;96173;-70
2023/02/26 08:48:01;;;;;;;62.00;40.50;;;;;;;1.53;73.37;98394.93;108813;1251;111210;-71
2023/02/26 08:50:28;;;;;;;57.90;29.90;;;;;;;1.54;73.62;98401.38;108757;1251;102015;-72
2023/02/26 08:52:57;;;;;;;34.70;17.90;;;;;;;1.57;73.53;98400.87;108715;1251;107641;-69
2023/02/26 08:55:26;;;;;;;31.50;16.50;;;;;;;1.57;73.50;98401.02;108759;1251;95681;-69
2023/02/26 08:57:53;;;;;;;40.80;20.60;;;;;;;1.59;73.79;98405.31;108739;1251;95875;-69
2023/02/26 09:00:21;;;;;;;32.60;16.00;;;;;;;1.63;73.83;98407.56;108753;1251;111230;-69
2023/02/26 09:15:50;;;;;;;27.00;13.60;;;;;;;2.19;73.60;98411.22;102302;1289;648855;-70
2023/02/26 09:18:18;;;;;;;33.00;16.30;;;;;;;2.26;73.19;98416.83;104688;1265;94316;-69
2023/02/26 09:20:46;;;;;;;17.70;7.10;;;;;;;2.25;73.24;98427.90;105264;1257;94418;-68
2023/02/26 09:23:14;;;;;;;24.00;10.00;;;;;;;2.25;73.59;98431.23;104639;1255;106720;-69
2023/02/26 09:25:42;;;;;;;38.00;17.80;;;;;;;2.21;73.45;98432.12;104729;1260;101119;-71
2023/02/26 09:28:11;;;;;;;30.60;15.80;;;;;;;2.22;73.12;98435.23;104733;1262;106717;-68
2023/02/26 09:30:39;;;;;;;35.60;18.60;;;;;;;2.21;73.47;98438.06;104678;1262;94367;-68
2023/02/26 09:33:08;;;;;;;31.00;14.40;;;;;;;2.25;73.78;98450.45;104536;1261;94588;-69
2023/02/26 09:35:36;;;;;;;24.90;9.70;;;;;;;2.32;73.99;98459.42;104737;1261;106501;-69
2023/02/26 09:38:04;;;;;;;25.30;11.40;;;;;;;2.31;73.67;98460.31;104530;1256;101442;-69
2023/02/26 09:40:51;;;;;;;28.90;13.60;;;;;;;2.25;73.51;98463.42;104529;1258;108200;-68
2023/02/26 09:43:55;;;;;;;32.30;16.00;;;;;;;2.14;73.75;98470.94;104619;1273;95253;-68
2023/02/26 09:46:45;;;;;;;25.70;12.50;;;;;;;2.03;73.49;98475.48;104614;1260;95859;-72
2023/02/26 09:49:29;;;;;;;28.60;12.80;;;;;;;2.05;73.76;98474.49;104368;1262;108471;-69
2023/02/26 09:52:39;;;;;;;33.00;15.90;;;;;;;2.21;74.02;98470.25;104649;1270;101818;-68
2023/02/26 09:55:28;;;;;;;31.80;15.40;;;;;;;2.26;73.37;98474.20;104577;1261;108126;-68
2023/02/26 09:58:03;;;;;;;23.20;10.10;;;;;;;2.26;72.78;98475.98;104840;1259;96658;-69
2023/02/26 10:00:37;;;;;;;21.20;9.70;;;;;;;2.32;73.32;98481.45;104596;1259;95528;-70
2023/02/26 10:03:31;;;;;;;26.30;12.50;;;;;;;2.44;73.54;98475.62;104859;1258;108547;-69
2023/02/26 10:06:12;;;;;;;;;;;;;;;2.59;73.76;98479.45;105281;1256;100876;-69
2023/02/26 10:09:12;;;;;;;23.50;11.10;;;;;;;2.69;73.42;98481.23;105093;1253;108268;-69
2023/02/26 10:11:54;;;;;;;22.50;10.00;;;;;;;2.81;73.26;98486.23;105287;1254;95287;-71
2023/02/26 10:14:26;;;;;;;26.60;13.10;;;;;;;2.86;73.14;98490.21;105282;1255;95485;-71
2023/02/26 10:17:04;;;;;;;22.40;9.90;;;;;;;2.86;73.22;98496.51;105124;1259;108586;-70
2023/02/26 10:19:41;;;;;;;29.30;11.50;;;;;;;2.81;73.10;98498.13;105128;1253;99592;-69
2023/02/26 10:22:17;;;;;;;29.40;13.90;;;;;;;2.88;73.64;98501.13;105316;1255;105544;-69
2023/02/26 10:24:51;;;;;;;23.10;10.40;;;;;;;2.95;73.12;98510.42;105271;1257;95852;-70
2023/02/26 10:27:38;;;;;;;24.20;13.10;;;;;;;2.82;71.60;98517.36;104982;1255;95228;-70
2023/02/26 10:30:10;;;;;;;24.50;12.10;;;;;;;2.64;72.43;98522.42;105247;1253;108571;-70
2023/02/26 10:32:49;;;;;;;37.60;18.10;;;;;;;2.52;72.63;98529.17;105168;1259;99961;-70
2023/02/26 10:35:24;;;;;;;46.70;24.70;;;;;;;2.40;72.74;98536.19;105045;1257;107629;-71
2023/02/26 10:37:58;;;;;;;41.00;20.00;;;;;;;2.38;73.11;98537.34;105172;1255;96108;-70
2023/02/26 10:40:29;;;;;;;28.00;12.80;;;;;;;2.38;73.04;98546.27;105431;1253;95266;-70
2023/02/26 10:43:03;;;;;;;29.10;12.80;;;;;;;2.26;72.44;98541.24;105163;1257;108692;-70
2023/02/26 10:45:39;;;;;;;;;;;;;;;2.20;72.98;98548.13;105214;1257;99003;-70
2023/02/26 10:48:15;;;;;;;34.20;14.80;;;;;;;2.23;73.40;98549.07;105111;1253;107130;-69
2023/02/26 10:50:50;;;;;;;39.10;17.90;;;;;;;2.27;73.22;98550.28;105281;1257;96217;-68
2023/02/26 10:53:20;;;;;;;39.30;17.80;;;;;;;2.29;73.22;98553.36;105157;1258;95250;-69
2023/02/26 10:56:19;;;;;;;30.10;13.10;;;;;;;2.35;73.18;98556.38;105027;1257;108555;-70
2023/02/26 10:58:50;;;;;;;30.20;12.90;;;;;;;2.39;72.99;98560.91;105252;1260;100687;-70
2023/02/26 11:01:20;;;;;;;30.20;14.50;;;;;;;2.39;72.84;98566.01;105039;1259;108455;-68
2023/02/26 11:04:03;;;;;;;25.50;13.00;;;;;;;2.39;72.70;98568.83;104730;1259;96081;-69
2023/02/26 11:06:37;;;;;;;28.10;13.50;;;;;;;2.43;72.92;98572.83;105020;1258;95863;-69
2023/02/26 11:09:38;;;;;;;22.70;9.80;;;;;;;2.48;72.96;98575.88;105944;1255;108723;-70
2023/02/26 11:12:16;;;;;;;23.50;13.10;;;;;;;2.52;72.77;98582.16;105236;1255;100585;-69
2023/02/26 11:14:47;;;;;;;20.30;8.30;;;;;;;2.43;72.33;98583.13;105198;1253;106574;-70
2023/02/26 11:17:28;;;;;;;20.40;9.40;;;;;;;2.38;72.45;98587.55;108515;1254;92956;-69
2023/02/26 11:20:23;;;;;;;21.90;11.40;;;;;;;2.35;72.47;98592.09;107224;1255;95228;-71
2023/02/26 11:22:57;;;;;;;24.70;12.00;;;;;;;2.36;72.77;98596.58;108645;1253;108565;-69
2023/02/26 11:25:28;;;;;;;33.20;18.20;;;;;;;2.36;72.56;98595.34;108549;1254;101318;-68
2023/02/26 11:28:17;;;;;;;29.40;13.30;;;;;;;2.41;72.69;98595.52;108533;1254;107475;-82
2023/02/26 11:30:47;;;;;;;31.20;14.10;;;;;;;2.38;72.40;98599.64;108551;1254;92902;-71
2023/02/26 11:33:21;;;;;;;29.00;11.70;;;;;;;2.36;72.67;98602.88;108544;1253;93108;-69
2023/02/26 11:35:50;;;;;;;21.70;9.80;;;;;;;2.35;72.01;98605.89;105730;1257;108518;-70
2023/02/26 11:38:22;;;;;;;24.90;9.80;;;;;;;2.31;72.18;98605.23;105175;1259;100565;-71
2023/02/26 11:40:54;;;;;;;27.70;12.70;;;;;;;2.34;72.85;98609.77;105181;1257;108342;-71
2023/02/26 11:43:27;;;;;;;24.00;9.50;;;;;;;2.48;72.94;98610.20;105192;1253;95313;-71
2023/02/26 11:46:00;;;;;;;20.50;8.80;;;;;;;2.68;73.09;98608.74;105165;1257;95553;-71
2023/02/26 11:48:38;;;;;;;20.10;9.10;;;;;;;2.86;73.03;98605.59;105196;1257;108277;-70
2023/02/26 11:51:13;;;;;;;20.80;9.60;;;;;;;2.99;72.73;98604.10;104945;1253;100884;-70
2023/02/26 11:53:48;;;;;;;21.60;9.40;;;;;;;3.06;72.80;98602.16;105011;1259;107746;-70
2023/02/26 11:56:42;;;;;;;21.10;8.90;;;;;;;3.14;72.66;98603.55;105169;1259;96280;-71
2023/02/26 11:59:23;;;;;;;19.10;7.50;;;;;;;3.13;72.21;98607.98;105340;1258;96026;-72